sensor_id;sensor_type;location;lat;lon;timestamp;pressure;altitude;pressure_sealevel;temperature;humidity
51603;BME280;37954;51.980;5.850;2023-02-28T00:02:34;102785.50;;;2.68;68.46
51603;BME280;37954;51.980;5.850;2023-02-28T00:06:46;102784.88;;;2.87;68.54
51603;BME280;37954;51.980;5.850;2023-02-28T00:11:04;102777.50;;;2.90;68.51
51603;BME280;37954;51.980;5.850;2023-02-28T00:15:16;102786.41;;;3.00;68.44
51603;BME280;37954;51.980;5.850;2023-02-28T00:19:28;102784.56;;;3.12;67.80
51603;BME280;37954;51.980;5.850;2023-02-28T00:23:40;102782.63;;;3.14;67.92
51603;BME280;37954;51.980;5.850;2023-02-28T00:27:52;102775.50;;;3.14;67.95
51603;BME280;37954;51.980;5.850;2023-02-28T00:32:05;102784.31;;;3.26;67.81
51603;BME280;37954;51.980;5.850;2023-02-28T00:36:17;102785.72;;;3.30;67.55
51603;BME280;37954;51.980;5.850;2023-02-28T00:40:29;102771.38;;;3.33;67.59
51603;BME280;37954;51.980;5.850;2023-02-28T00:44:41;102790.31;;;3.39;67.33
51603;BME280;37954;51.980;5.850;2023-02-28T00:48:52;102784.88;;;3.41;67.24
51603;BME280;37954;51.980;5.850;2023-02-28T00:53:04;102765.31;;;3.42;66.72
51603;BME280;37954;51.980;5.850;2023-02-28T00:57:15;102772.50;;;3.51;66.60
51603;BME280;37954;51.980;5.850;2023-02-28T01:01:27;102777.81;;;3.51;66.25
51603;BME280;37954;51.980;5.850;2023-02-28T01:05:39;102778.28;;;3.56;66.25
51603;BME280;37954;51.980;5.850;2023-02-28T01:09:52;102787.94;;;3.57;66.16
51603;BME280;37954;51.980;5.850;2023-02-28T01:14:03;102770.31;;;3.56;65.96
51603;BME280;37954;51.980;5.850;2023-02-28T01:18:15;102771.28;;;3.55;66.06
51603;BME280;37954;51.980;5.850;2023-02-28T01:22:27;102775.13;;;3.62;66.11
51603;BME280;37954;51.980;5.850;2023-02-28T01:26:39;102778.66;;;3.52;66.41
51603;BME280;37954;51.980;5.850;2023-02-28T01:30:51;102778.78;;;3.50;66.29
51603;BME280;37954;51.980;5.850;2023-02-28T01:35:03;102779.19;;;3.45;66.31
51603;BME280;37954;51.980;5.850;2023-02-28T01:39:15;102781.00;;;3.45;66.91
51603;BME280;37954;51.980;5.850;2023-02-28T01:43:35;102788.19;;;3.54;66.86
51603;BME280;37954;51.980;5.850;2023-02-28T01:48:05;102781.00;;;3.45;66.70
51603;BME280;37954;51.980;5.850;2023-02-28T01:52:19;102762.41;;;3.45;67.25
51603;BME280;37954;51.980;5.850;2023-02-28T01:56:33;102773.72;;;3.47;67.21
51603;BME280;37954;51.980;5.850;2023-02-28T02:00:49;102768.56;;;3.45;67.05
51603;BME280;37954;51.980;5.850;2023-02-28T02:05:05;102767.19;;;3.51;66.93
51603;BME280;37954;51.980;5.850;2023-02-28T02:09:17;102760.91;;;3.52;66.74
51603;BME280;37954;51.980;5.850;2023-02-28T02:18:21;102761.75;;;3.53;66.69
51603;BME280;37954;51.980;5.850;2023-02-28T02:22:52;102771.53;;;3.52;66.86
51603;BME280;37954;51.980;5.850;2023-02-28T02:40:20;102768.25;;;3.60;67.14
51603;BME280;37954;51.980;5.850;2023-02-28T02:44:49;102780.28;;;3.64;66.81
51603;BME280;37954;51.980;5.850;2023-02-28T02:49:06;102767.41;;;3.59;65.99
51603;BME280;37954;51.980;5.850;2023-02-28T02:53:25;102770.66;;;3.63;66.21
51603;BME280;37954;51.980;5.850;2023-02-28T02:57:47;102771.34;;;3.65;66.08
51603;BME280;37954;51.980;5.850;2023-02-28T03:02:04;102781.47;;;3.71;65.53
51603;BME280;37954;51.980;5.850;2023-02-28T03:06:17;102788.72;;;3.69;64.98
51603;BME280;37954;51.980;5.850;2023-02-28T03:10:59;102789.22;;;3.74;64.91
51603;BME280;37954;51.980;5.850;2023-02-28T03:15:22;102790.19;;;3.73;64.71
51603;BME280;37954;51.980;5.850;2023-02-28T03:19:45;102788.72;;;3.69;64.12
51603;BME280;37954;51.980;5.850;2023-02-28T03:28:23;102795.25;;;3.76;63.75
51603;BME280;37954;51.980;5.850;2023-02-28T03:32:42;102781.22;;;3.74;63.09
51603;BME280;37954;51.980;5.850;2023-02-28T03:37:03;102784.59;;;3.76;63.13
51603;BME280;37954;51.980;5.850;2023-02-28T03:41:31;102787.41;;;3.74;62.61
51603;BME280;37954;51.980;5.850;2023-02-28T03:45:45;102784.13;;;3.71;62.09
51603;BME280;37954;51.980;5.850;2023-02-28T03:54:27;102781.59;;;3.69;61.65
51603;BME280;37954;51.980;5.850;2023-02-28T04:03:17;102781.84;;;3.66;59.54
51603;BME280;37954;51.980;5.850;2023-02-28T04:07:29;102767.72;;;3.66;59.61
51603;BME280;37954;51.980;5.850;2023-02-28T04:11:50;102772.31;;;3.64;59.65
51603;BME280;37954;51.980;5.850;2023-02-28T04:16:07;102776.22;;;3.60;59.37
51603;BME280;37954;51.980;5.850;2023-02-28T04:20:31;102771.03;;;3.58;59.32
51603;BME280;37954;51.980;5.850;2023-02-28T04:24:43;102763.78;;;3.60;58.47
51603;BME280;37954;51.980;5.850;2023-02-28T04:28:55;102770.91;;;3.60;58.68
51603;BME280;37954;51.980;5.850;2023-02-28T04:33:07;102762.47;;;3.55;59.04
51603;BME280;37954;51.980;5.850;2023-02-28T04:37:19;102755.00;;;3.48;58.52
51603;BME280;37954;51.980;5.850;2023-02-28T04:41:31;102763.25;;;3.45;59.80
51603;BME280;37954;51.980;5.850;2023-02-28T04:45:43;102777.09;;;3.49;60.17
51603;BME280;37954;51.980;5.850;2023-02-28T04:49:55;102763.16;;;3.36;59.93
51603;BME280;37954;51.980;5.850;2023-02-28T04:54:07;102786.81;;;3.39;60.53
51603;BME280;37954;51.980;5.850;2023-02-28T04:58:19;102765.00;;;3.24;61.16
51603;BME280;37954;51.980;5.850;2023-02-28T05:02:30;102765.50;;;3.18;60.84
51603;BME280;37954;51.980;5.850;2023-02-28T05:06:42;102777.44;;;3.12;61.90
51603;BME280;37954;51.980;5.850;2023-02-28T05:10:54;102764.31;;;3.11;61.93
51603;BME280;37954;51.980;5.850;2023-02-28T05:15:07;102782.53;;;3.15;61.59
51603;BME280;37954;51.980;5.850;2023-02-28T05:19:19;102768.69;;;3.01;62.49
51603;BME280;37954;51.980;5.850;2023-02-28T05:23:32;102780.25;;;3.11;62.46
51603;BME280;37954;51.980;5.850;2023-02-28T05:27:44;102770.25;;;3.03;62.70
51603;BME280;37954;51.980;5.850;2023-02-28T05:31:56;102766.03;;;3.01;62.91
51603;BME280;37954;51.980;5.850;2023-02-28T05:36:08;102776.28;;;3.05;63.27
51603;BME280;37954;51.980;5.850;2023-02-28T05:40:19;102779.66;;;3.07;63.26
51603;BME280;37954;51.980;5.850;2023-02-28T05:44:32;102778.81;;;3.07;63.86
51603;BME280;37954;51.980;5.850;2023-02-28T05:48:46;102803.31;;;3.10;63.50
51603;BME280;37954;51.980;5.850;2023-02-28T05:52:58;102779.41;;;2.99;64.04
51603;BME280;37954;51.980;5.850;2023-02-28T05:57:09;102777.72;;;2.98;63.88
51603;BME280;37954;51.980;5.850;2023-02-28T06:01:37;102778.56;;;2.99;63.97
51603;BME280;37954;51.980;5.850;2023-02-28T06:05:49;102780.75;;;3.05;63.80
51603;BME280;37954;51.980;5.850;2023-02-28T06:10:01;102788.34;;;3.09;64.06
51603;BME280;37954;51.980;5.850;2023-02-28T06:14:18;102781.78;;;3.13;64.02
51603;BME280;37954;51.980;5.850;2023-02-28T06:18:30;102794.94;;;3.15;63.71
51603;BME280;37954;51.980;5.850;2023-02-28T06:22:42;102789.03;;;3.23;63.72
51603;BME280;37954;51.980;5.850;2023-02-28T06:26:54;102787.09;;;3.25;63.33
51603;BME280;37954;51.980;5.850;2023-02-28T06:31:08;102801.53;;;3.32;63.28
51603;BME280;37954;51.980;5.850;2023-02-28T06:35:19;102802.41;;;3.32;62.75
51603;BME280;37954;51.980;5.850;2023-02-28T06:39:31;102809.38;;;3.33;63.11
51603;BME280;37954;51.980;5.850;2023-02-28T06:43:43;102818.41;;;3.53;62.52
51603;BME280;37954;51.980;5.850;2023-02-28T06:47:55;102827.03;;;3.66;62.28
51603;BME280;37954;51.980;5.850;2023-02-28T06:52:07;102828.47;;;3.70;62.13
51603;BME280;37954;51.980;5.850;2023-02-28T06:56:20;102825.19;;;3.78;61.54
51603;BME280;37954;51.980;5.850;2023-02-28T07:00:31;102828.88;;;3.87;61.01
51603;BME280;37954;51.980;5.850;2023-02-28T07:04:43;102843.44;;;4.03;61.20
51603;BME280;37954;51.980;5.850;2023-02-28T07:08:56;102845.38;;;4.01;59.48
51603;BME280;37954;51.980;5.850;2023-02-28T07:13:08;102834.75;;;4.01;59.51
51603;BME280;37954;51.980;5.850;2023-02-28T07:17:20;102849.69;;;4.13;59.06
51603;BME280;37954;51.980;5.850;2023-02-28T07:21:31;102829.81;;;4.17;58.77
51603;BME280;37954;51.980;5.850;2023-02-28T07:25:43;102833.84;;;4.33;57.31
51603;BME280;37954;51.980;5.850;2023-02-28T07:29:55;102833.31;;;4.39;56.40
51603;BME280;37954;51.980;5.850;2023-02-28T07:34:07;102842.06;;;4.50;56.28
51603;BME280;37954;51.980;5.850;2023-02-28T07:38:18;102856.41;;;4.59;55.30
51603;BME280;37954;51.980;5.850;2023-02-28T07:42:30;102853.41;;;4.52;54.31
51603;BME280;37954;51.980;5.850;2023-02-28T07:46:42;102858.34;;;4.57;53.48
51603;BME280;37954;51.980;5.850;2023-02-28T07:50:55;102844.97;;;5.08;53.39
51603;BME280;37954;51.980;5.850;2023-02-28T07:55:08;102855.09;;;6.22;53.27
51603;BME280;37954;51.980;5.850;2023-02-28T07:59:20;102864.78;;;7.61;51.17
51603;BME280;37954;51.980;5.850;2023-02-28T08:03:32;102856.78;;;9.00;50.08
51603;BME280;37954;51.980;5.850;2023-02-28T08:07:44;102860.41;;;10.00;45.71
51603;BME280;37954;51.980;5.850;2023-02-28T08:11:55;102863.75;;;10.51;44.10
51603;BME280;37954;51.980;5.850;2023-02-28T08:16:07;102875.53;;;11.44;43.82
51603;BME280;37954;51.980;5.850;2023-02-28T08:20:19;102874.25;;;12.31;41.88
51603;BME280;37954;51.980;5.850;2023-02-28T08:24:31;102877.59;;;12.71;39.47
51603;BME280;37954;51.980;5.850;2023-02-28T08:28:43;102872.63;;;12.45;35.70
51603;BME280;37954;51.980;5.850;2023-02-28T08:32:55;102875.00;;;12.77;35.96
51603;BME280;37954;51.980;5.850;2023-02-28T08:37:07;102881.31;;;12.84;33.77
51603;BME280;37954;51.980;5.850;2023-02-28T08:41:19;102876.84;;;13.21;33.63
51603;BME280;37954;51.980;5.850;2023-02-28T08:45:31;102868.50;;;13.67;32.86
51603;BME280;37954;51.980;5.850;2023-02-28T08:49:42;102871.06;;;14.17;31.58
51603;BME280;37954;51.980;5.850;2023-02-28T08:53:59;102866.97;;;14.49;30.86
51603;BME280;37954;51.980;5.850;2023-02-28T08:58:11;102867.81;;;14.28;30.14
51603;BME280;37954;51.980;5.850;2023-02-28T09:02:23;102868.59;;;14.22;29.54
51603;BME280;37954;51.980;5.850;2023-02-28T09:06:34;102871.75;;;14.26;28.61
51603;BME280;37954;51.980;5.850;2023-02-28T09:10:46;102863.72;;;14.39;27.87
51603;BME280;37954;51.980;5.850;2023-02-28T09:14:58;102878.06;;;14.54;27.87
51603;BME280;37954;51.980;5.850;2023-02-28T09:19:11;102864.75;;;14.38;27.25
51603;BME280;37954;51.980;5.850;2023-02-28T09:23:24;102881.16;;;14.58;26.53
51603;BME280;37954;51.980;5.850;2023-02-28T09:27:36;102876.69;;;14.22;26.94
51603;BME280;37954;51.980;5.850;2023-02-28T09:31:48;102883.53;;;14.68;26.65
51603;BME280;37954;51.980;5.850;2023-02-28T09:36:02;102894.72;;;14.92;26.16
51603;BME280;37954;51.980;5.850;2023-02-28T09:40:14;102873.56;;;15.03;25.13
51603;BME280;37954;51.980;5.850;2023-02-28T09:44:43;102865.78;;;15.34;25.24
51603;BME280;37954;51.980;5.850;2023-02-28T09:48:57;102863.38;;;15.59;25.13
51603;BME280;37954;51.980;5.850;2023-02-28T09:53:21;102869.88;;;15.78;24.56
51603;BME280;37954;51.980;5.850;2023-02-28T09:57:37;102861.13;;;15.82;24.33
51603;BME280;37954;51.980;5.850;2023-02-28T10:02:31;102874.72;;;16.02;24.21
51603;BME280;37954;51.980;5.850;2023-02-28T10:11:43;102852.00;;;16.10;23.62
51603;BME280;37954;51.980;5.850;2023-02-28T10:16:20;102868.06;;;16.05;23.51
51603;BME280;37954;51.980;5.850;2023-02-28T10:20:35;102866.56;;;15.76;23.21
51603;BME280;37954;51.980;5.850;2023-02-28T10:24:54;102855.53;;;16.04;23.39
51603;BME280;37954;51.980;5.850;2023-02-28T10:29:08;102862.63;;;15.98;23.06
51603;BME280;37954;51.980;5.850;2023-02-28T10:33:29;102863.44;;;15.72;23.03
51603;BME280;37954;51.980;5.850;2023-02-28T10:37:42;102858.78;;;15.59;23.33
51603;BME280;37954;51.980;5.850;2023-02-28T10:41:54;102856.50;;;15.56;23.31
51603;BME280;37954;51.980;5.850;2023-02-28T10:46:11;102848.66;;;15.27;23.58
51603;BME280;37954;51.980;5.850;2023-02-28T10:50:36;102844.75;;;15.43;23.73
51603;BME280;37954;51.980;5.850;2023-02-28T10:55:13;102838.22;;;15.24;24.05
51603;BME280;37954;51.980;5.850;2023-02-28T10:59:30;102843.81;;;15.16;24.11
51603;BME280;37954;51.980;5.850;2023-02-28T11:03:42;102836.63;;;15.43;24.27
51603;BME280;37954;51.980;5.850;2023-02-28T11:07:55;102831.47;;;15.54;24.15
51603;BME280;37954;51.980;5.850;2023-02-28T11:12:37;102828.47;;;15.23;23.95
51603;BME280;37954;51.980;5.850;2023-02-28T11:17:14;102835.94;;;14.80;24.28
51603;BME280;37954;51.980;5.850;2023-02-28T11:21:30;102820.25;;;14.34;24.72
51603;BME280;37954;51.980;5.850;2023-02-28T11:25:51;102832.47;;;13.81;24.75
51603;BME280;37954;51.980;5.850;2023-02-28T11:30:43;102828.97;;;13.44;25.41
51603;BME280;37954;51.980;5.850;2023-02-28T11:35:52;102826.88;;;13.25;25.04
51603;BME280;37954;51.980;5.850;2023-02-28T11:39:56;102818.13;;;13.08;25.81
51603;BME280;37954;51.980;5.850;2023-02-28T12:12:38;102800.03;;;13.59;25.96
51603;BME280;37954;51.980;5.850;2023-02-28T12:21:25;102783.78;;;13.53;25.89
51603;BME280;37954;51.980;5.850;2023-02-28T12:26:18;102770.84;;;13.27;25.57
51603;BME280;37954;51.980;5.850;2023-02-28T12:30:34;102773.84;;;13.17;25.45
51603;BME280;37954;51.980;5.850;2023-02-28T12:39:25;102779.97;;;13.11;25.25
51603;BME280;37954;51.980;5.850;2023-02-28T12:43:42;102765.28;;;13.14;25.54
51603;BME280;37954;51.980;5.850;2023-02-28T12:48:08;102757.97;;;12.93;25.90
51603;BME280;37954;51.980;5.850;2023-02-28T12:57:15;102745.97;;;11.70;26.15
51603;BME280;37954;51.980;5.850;2023-02-28T13:01:39;102740.34;;;11.42;26.51
51603;BME280;37954;51.980;5.850;2023-02-28T13:10:38;102743.69;;;10.90;27.21
51603;BME280;37954;51.980;5.850;2023-02-28T13:15:05;102726.25;;;10.78;26.66
51603;BME280;37954;51.980;5.850;2023-02-28T13:19:25;102725.50;;;10.92;27.30
51603;BME280;37954;51.980;5.850;2023-02-28T13:24:03;102711.31;;;10.75;27.52
51603;BME280;37954;51.980;5.850;2023-02-28T13:33:27;102707.31;;;10.24;27.90
51603;BME280;37954;51.980;5.850;2023-02-28T13:37:43;102713.88;;;10.05;27.86
51603;BME280;37954;51.980;5.850;2023-02-28T13:41:55;102702.38;;;9.64;28.33
51603;BME280;37954;51.980;5.850;2023-02-28T13:46:12;102710.41;;;9.56;28.56
51603;BME280;37954;51.980;5.850;2023-02-28T13:50:31;102701.53;;;9.56;29.06
51603;BME280;37954;51.980;5.850;2023-02-28T13:55:12;102707.41;;;9.59;29.22
51603;BME280;37954;51.980;5.850;2023-02-28T13:59:47;102704.38;;;9.30;29.52
51603;BME280;37954;51.980;5.850;2023-02-28T14:13:46;102700.63;;;8.90;30.62
51603;BME280;37954;51.980;5.850;2023-02-28T14:18:01;102687.03;;;8.76;30.73
51603;BME280;37954;51.980;5.850;2023-02-28T14:31:33;102691.22;;;8.78;31.33
51603;BME280;37954;51.980;5.850;2023-02-28T14:36:00;102673.63;;;8.76;31.51
51603;BME280;37954;51.980;5.850;2023-02-28T14:40:29;102687.66;;;8.69;31.59
51603;BME280;37954;51.980;5.850;2023-02-28T14:44:41;102680.47;;;8.62;31.28
51603;BME280;37954;51.980;5.850;2023-02-28T14:48:53;102660.66;;;8.55;31.68
51603;BME280;37954;51.980;5.850;2023-02-28T14:53:06;102668.75;;;8.63;31.75
51603;BME280;37954;51.980;5.850;2023-02-28T14:57:28;102673.41;;;8.61;31.71
51603;BME280;37954;51.980;5.850;2023-02-28T15:01:41;102669.69;;;8.46;31.65
51603;BME280;37954;51.980;5.850;2023-02-28T15:05:55;102676.00;;;8.36;31.46
51603;BME280;37954;51.980;5.850;2023-02-28T15:10:16;102679.56;;;8.45;31.83
51603;BME280;37954;51.980;5.850;2023-02-28T15:14:28;102672.31;;;8.37;32.32
51603;BME280;37954;51.980;5.850;2023-02-28T15:19:01;102672.69;;;8.43;32.60
51603;BME280;37954;51.980;5.850;2023-02-28T15:23:16;102672.47;;;8.36;32.38
51603;BME280;37954;51.980;5.850;2023-02-28T15:27:31;102648.34;;;8.28;33.01
51603;BME280;37954;51.980;5.850;2023-02-28T15:32:06;102680.19;;;8.39;33.08
51603;BME280;37954;51.980;5.850;2023-02-28T15:36:18;102656.16;;;8.21;32.60
51603;BME280;37954;51.980;5.850;2023-02-28T15:40:37;102670.16;;;8.15;32.10
51603;BME280;37954;51.980;5.850;2023-02-28T15:44:49;102663.75;;;8.00;32.15
51603;BME280;37954;51.980;5.850;2023-02-28T15:49:00;102638.69;;;7.75;32.22
51603;BME280;37954;51.980;5.850;2023-02-28T15:53:15;102667.41;;;7.99;32.55
51603;BME280;37954;51.980;5.850;2023-02-28T15:57:29;102653.47;;;7.87;32.77
51603;BME280;37954;51.980;5.850;2023-02-28T16:01:41;102619.72;;;7.60;32.89
51603;BME280;37954;51.980;5.850;2023-02-28T16:10:36;102663.31;;;7.79;33.40
51603;BME280;37954;51.980;5.850;2023-02-28T16:14:51;102669.41;;;7.71;33.24
51603;BME280;37954;51.980;5.850;2023-02-28T16:19:03;102643.56;;;7.54;33.54
51603;BME280;37954;51.980;5.850;2023-02-28T16:23:15;102668.31;;;7.56;33.86
51603;BME280;37954;51.980;5.850;2023-02-28T16:27:31;102665.56;;;7.48;33.66
51603;BME280;37954;51.980;5.850;2023-02-28T16:31:43;102648.72;;;7.29;33.97
51603;BME280;37954;51.980;5.850;2023-02-28T16:35:55;102664.13;;;7.36;34.01
51603;BME280;37954;51.980;5.850;2023-02-28T16:40:13;102651.94;;;7.15;34.31
51603;BME280;37954;51.980;5.850;2023-02-28T16:44:31;102680.59;;;7.23;34.56
51603;BME280;37954;51.980;5.850;2023-02-28T16:48:44;102643.22;;;6.95;34.64
51603;BME280;37954;51.980;5.850;2023-02-28T16:52:56;102676.91;;;7.06;35.13
51603;BME280;37954;51.980;5.850;2023-02-28T16:57:18;102659.88;;;6.89;35.47
51603;BME280;37954;51.980;5.850;2023-02-28T17:01:31;102688.13;;;6.92;35.35
51603;BME280;37954;51.980;5.850;2023-02-28T17:05:44;102667.19;;;6.70;35.79
51603;BME280;37954;51.980;5.850;2023-02-28T17:09:55;102697.94;;;6.74;35.48
51603;BME280;37954;51.980;5.850;2023-02-28T17:14:07;102699.97;;;6.62;35.97
51603;BME280;37954;51.980;5.850;2023-02-28T17:18:20;102682.38;;;6.42;36.21
51603;BME280;37954;51.980;5.850;2023-02-28T17:22:32;102683.97;;;6.25;36.50
51603;BME280;37954;51.980;5.850;2023-02-28T17:26:43;102692.03;;;6.15;36.73
51603;BME280;37954;51.980;5.850;2023-02-28T17:30:55;102682.84;;;6.00;36.84
51603;BME280;37954;51.980;5.850;2023-02-28T17:35:07;102718.44;;;6.09;37.09
51603;BME280;37954;51.980;5.850;2023-02-28T17:39:19;102721.31;;;5.98;37.52
51603;BME280;37954;51.980;5.850;2023-02-28T17:43:35;102737.03;;;5.91;37.57
51603;BME280;37954;51.980;5.850;2023-02-28T17:47:48;102733.66;;;5.79;37.87
51603;BME280;37954;51.980;5.850;2023-02-28T17:52:00;102737.72;;;5.74;37.93
51603;BME280;37954;51.980;5.850;2023-02-28T17:56:16;102748.13;;;5.67;38.20
51603;BME280;37954;51.980;5.850;2023-02-28T18:00:29;102731.44;;;5.55;38.07
51603;BME280;37954;51.980;5.850;2023-02-28T18:04:41;102738.75;;;5.53;38.36
51603;BME280;37954;51.980;5.850;2023-02-28T18:08:53;102733.56;;;5.52;38.11
51603;BME280;37954;51.980;5.850;2023-02-28T18:13:05;102738.59;;;5.45;38.59
51603;BME280;37954;51.980;5.850;2023-02-28T18:17:16;102742.53;;;5.41;38.50
51603;BME280;37954;51.980;5.850;2023-02-28T18:21:28;102734.25;;;5.35;38.60
51603;BME280;37954;51.980;5.850;2023-02-28T18:25:39;102726.94;;;5.27;38.59
51603;BME280;37954;51.980;5.850;2023-02-28T18:29:51;102737.75;;;5.25;38.95
51603;BME280;37954;51.980;5.850;2023-02-28T18:34:03;102730.31;;;5.19;38.80
51603;BME280;37954;51.980;5.850;2023-02-28T18:38:17;102747.97;;;5.20;38.73
51603;BME280;37954;51.980;5.850;2023-02-28T18:42:32;102740.38;;;5.06;39.06
51603;BME280;37954;51.980;5.850;2023-02-28T18:46:44;102740.13;;;5.00;39.60
51603;BME280;37954;51.980;5.850;2023-02-28T18:50:55;102747.41;;;4.98;39.50
51603;BME280;37954;51.980;5.850;2023-02-28T18:55:07;102751.69;;;4.89;40.01
51603;BME280;37954;51.980;5.850;2023-02-28T18:59:21;102760.66;;;4.88;39.91
51603;BME280;37954;51.980;5.850;2023-02-28T19:03:33;102749.56;;;4.73;40.10
51603;BME280;37954;51.980;5.850;2023-02-28T19:07:45;102761.31;;;4.71;40.45
51603;BME280;37954;51.980;5.850;2023-02-28T19:11:56;102743.88;;;4.47;41.19
51603;BME280;37954;51.980;5.850;2023-02-28T19:16:09;102767.97;;;4.55;41.51
51603;BME280;37954;51.980;5.850;2023-02-28T19:20:21;102753.75;;;4.36;41.54
51603;BME280;37954;51.980;5.850;2023-02-28T19:24:33;102762.91;;;4.43;41.55
51603;BME280;37954;51.980;5.850;2023-02-28T19:28:45;102768.59;;;4.38;41.49
51603;BME280;37954;51.980;5.850;2023-02-28T19:32:56;102763.38;;;4.27;42.16
51603;BME280;37954;51.980;5.850;2023-02-28T19:37:09;102756.47;;;4.15;42.26
51603;BME280;37954;51.980;5.850;2023-02-28T19:41:20;102770.91;;;4.22;42.32
51603;BME280;37954;51.980;5.850;2023-02-28T19:45:34;102772.56;;;4.13;42.32
51603;BME280;37954;51.980;5.850;2023-02-28T19:49:46;102751.34;;;4.02;42.42
51603;BME280;37954;51.980;5.850;2023-02-28T19:53:57;102760.88;;;4.05;42.48
51603;BME280;37954;51.980;5.850;2023-02-28T19:58:09;102745.50;;;3.88;42.57
51603;BME280;37954;51.980;5.850;2023-02-28T20:02:21;102783.50;;;3.99;42.34
51603;BME280;37954;51.980;5.850;2023-02-28T20:06:33;102767.88;;;3.85;42.70
51603;BME280;37954;51.980;5.850;2023-02-28T20:10:45;102774.16;;;3.84;42.52
51603;BME280;37954;51.980;5.850;2023-02-28T20:14:56;102770.72;;;3.72;42.92
51603;BME280;37954;51.980;5.850;2023-02-28T20:19:10;102780.97;;;3.77;43.56
51603;BME280;37954;51.980;5.850;2023-02-28T20:23:24;102769.41;;;3.67;43.61
51603;BME280;37954;51.980;5.850;2023-02-28T20:27:36;102787.53;;;3.73;43.89
51603;BME280;37954;51.980;5.850;2023-02-28T20:31:48;102776.47;;;3.57;43.72
51603;BME280;37954;51.980;5.850;2023-02-28T20:36:00;102760.84;;;3.42;44.07
51603;BME280;37954;51.980;5.850;2023-02-28T20:40:12;102771.47;;;3.42;44.50
51603;BME280;37954;51.980;5.850;2023-02-28T20:44:24;102769.69;;;3.32;44.64
51603;BME280;37954;51.980;5.850;2023-02-28T20:48:37;102785.88;;;3.29;45.16
51603;BME280;37954;51.980;5.850;2023-02-28T20:52:49;102778.28;;;3.24;45.53
51603;BME280;37954;51.980;5.850;2023-02-28T20:57:01;102773.72;;;3.15;45.31
51603;BME280;37954;51.980;5.850;2023-02-28T21:01:24;102795.66;;;3.17;45.63
51603;BME280;37954;51.980;5.850;2023-02-28T21:05:36;102790.88;;;3.11;45.84
51603;BME280;37954;51.980;5.850;2023-02-28T21:09:48;102790.03;;;3.10;46.25
51603;BME280;37954;51.980;5.850;2023-02-28T21:14:03;102794.63;;;3.08;46.19
51603;BME280;37954;51.980;5.850;2023-02-28T21:18:15;102780.13;;;3.01;46.42
51603;BME280;37954;51.980;5.850;2023-02-28T21:22:26;102783.88;;;2.99;46.59
51603;BME280;37954;51.980;5.850;2023-02-28T21:26:39;102780.78;;;2.94;46.29
51603;BME280;37954;51.980;5.850;2023-02-28T21:30:51;102772.94;;;2.81;46.97
51603;BME280;37954;51.980;5.850;2023-02-28T21:35:03;102786.56;;;2.88;47.08
51603;BME280;37954;51.980;5.850;2023-02-28T21:39:21;102797.19;;;2.88;47.45
51603;BME280;37954;51.980;5.850;2023-02-28T21:43:36;102776.22;;;2.73;47.98
51603;BME280;37954;51.980;5.850;2023-02-28T21:47:48;102774.38;;;2.63;47.82
51603;BME280;37954;51.980;5.850;2023-02-28T21:51:59;102778.50;;;2.56;48.05
51603;BME280;37954;51.980;5.850;2023-02-28T21:56:14;102778.84;;;2.51;48.15
51603;BME280;37954;51.980;5.850;2023-02-28T22:00:26;102770.78;;;2.41;48.79
51603;BME280;37954;51.980;5.850;2023-02-28T22:04:37;102783.44;;;2.38;49.12
51603;BME280;37954;51.980;5.850;2023-02-28T22:08:54;102790.66;;;2.36;48.91
51603;BME280;37954;51.980;5.850;2023-02-28T22:13:06;102799.25;;;2.39;48.83
51603;BME280;37954;51.980;5.850;2023-02-28T22:17:18;102799.59;;;2.35;49.36
51603;BME280;37954;51.980;5.850;2023-02-28T22:21:30;102793.06;;;2.28;49.62
51603;BME280;37954;51.980;5.850;2023-02-28T22:25:41;102785.09;;;2.17;49.98
51603;BME280;37954;51.980;5.850;2023-02-28T22:29:54;102805.56;;;2.15;50.04
51603;BME280;37954;51.980;5.850;2023-02-28T22:34:09;102790.72;;;2.01;50.74
51603;BME280;37954;51.980;5.850;2023-02-28T22:38:21;102795.91;;;2.02;50.36
51603;BME280;37954;51.980;5.850;2023-02-28T22:42:33;102784.19;;;1.94;50.42
51603;BME280;37954;51.980;5.850;2023-02-28T22:46:45;102783.34;;;1.93;50.72
51603;BME280;37954;51.980;5.850;2023-02-28T22:51:01;102792.03;;;1.95;51.13
51603;BME280;37954;51.980;5.850;2023-02-28T22:55:13;102766.34;;;1.85;51.19
51603;BME280;37954;51.980;5.850;2023-02-28T22:59:25;102779.13;;;1.91;51.30
51603;BME280;37954;51.980;5.850;2023-02-28T23:03:37;102789.47;;;1.83;51.23
51603;BME280;37954;51.980;5.850;2023-02-28T23:07:49;102789.19;;;1.74;51.52
51603;BME280;37954;51.980;5.850;2023-02-28T23:12:01;102796.28;;;1.74;52.23
51603;BME280;37954;51.980;5.850;2023-02-28T23:16:12;102755.75;;;1.50;52.58
51603;BME280;37954;51.980;5.850;2023-02-28T23:20:24;102804.38;;;1.72;52.45
51603;BME280;37954;51.980;5.850;2023-02-28T23:24:36;102784.56;;;1.54;53.05
51603;BME280;37954;51.980;5.850;2023-02-28T23:28:48;102794.69;;;1.60;52.73
51603;BME280;37954;51.980;5.850;2023-02-28T23:33:00;102813.09;;;1.62;52.64
51603;BME280;37954;51.980;5.850;2023-02-28T23:37:11;102793.69;;;1.50;53.08
51603;BME280;37954;51.980;5.850;2023-02-28T23:41:24;102803.09;;;1.54;53.85
51603;BME280;37954;51.980;5.850;2023-02-28T23:45:35;102801.28;;;1.55;53.37
51603;BME280;37954;51.980;5.850;2023-02-28T23:49:47;102795.25;;;1.53;53.61
51603;BME280;37954;51.980;5.850;2023-02-28T23:53:59;102812.84;;;1.54;53.61
51603;BME280;37954;51.980;5.850;2023-02-28T23:58:13;102816.34;;;1.54;53.27
